Airfield :







YOU CAN JOIN US ON...

 
LOGIN :

Register | Disclaimer

   EN    FR    IT 

 









Legend :    VFR   Marginal VFR   IFR   Intensive IFR   Very Intensive IFR
Visi :
Ceiling :
>= 8 km
>= 3000ft
5 to 8 km
1000 to 3000 ft
1500m to 5 km
500 to 1000 ft
800 to 1500m
200 to 500 ft
< 800m
< 200 ft
Symbols :   Thunderstorms  Fog  Heavy snow  Heavy precipitations  Wind > 20 kt







- Airport Elevation : 141 ft
- IATA code : YQI


CYQI - Yarmouth

CURRENT METAR :
  • 181100Z 03006KT 15SM FEW100 FEW250 05/03 A3025 RMK AC1CI1 AC TR CI TR SLP245

EXPIRED METARs :
  • 181000Z 02008KT 15SM FEW200 FEW250 03/02 A3022 RMK CC1CI1 CC TR CI TR SLP237
  • 180900Z 06005KT 15SM SKC 04/03 A3020 RMK SLP229

TAF TAF CYQI
Valid from the 18 at 06:00 until the 18 at 18:00 UTC


180541Z 1806/1818 02008KT P6SM FEW030
FM181400 01012KT P6SM BKN030 RMK NXT FCST BY 181200Z
No reported NOTAMs for that airfield.



MET'MAP, your aeronautical weather chart ! - Copyright ORBIFLY December 2007 - Disclaimer

ORBIFLY MET'MAP TEAM :

Programming & Development : Alexandra Zaïnal
Concept & Development : Baudouin d'Aumeries
Co-Development & Prog : Marc-Olivier Méhu
Technical & hardware support : Manuel Goepfert

Contact : metmap@orbifly.com




SOURCES & CREDITS :

   NOAA